createdAt,value
2023-02-14T00:07:13.334Z,10.85
2023-02-14T00:17:15.926Z,11.98
2023-02-14T00:27:18.458Z,11.57
2023-02-14T00:37:21.020Z,11.32
2023-02-14T00:47:23.551Z,10.48
2023-02-14T00:57:27.485Z,10.80
2023-02-14T01:07:30.146Z,9.53
2023-02-14T01:17:32.708Z,9.82
2023-02-14T01:27:35.252Z,8.77
2023-02-14T01:37:38.007Z,6.93
2023-02-14T01:47:43.353Z,8.13
2023-02-14T01:57:56.048Z,8.77
2023-02-14T02:08:01.430Z,7.77
2023-02-14T02:18:16.844Z,6.45
2023-02-14T02:28:40.885Z,5.85
2023-02-14T02:38:59.485Z,4.43
2023-02-14T02:49:47.616Z,5.57
2023-02-14T02:59:54.752Z,5.10
2023-02-14T03:10:00.256Z,6.33
2023-02-14T03:20:16.501Z,5.23
2023-02-14T03:30:47.159Z,6.13
2023-02-14T03:40:58.431Z,6.63
2023-02-14T03:51:04.614Z,6.23
2023-02-14T04:01:14.285Z,5.70
2023-02-14T04:11:16.952Z,4.72
2023-02-14T04:21:19.500Z,5.10
2023-02-14T04:31:22.065Z,5.60
2023-02-14T04:41:24.604Z,5.72
2023-02-14T04:51:27.706Z,6.30
2023-02-14T05:01:30.308Z,5.07
2023-02-14T05:11:32.952Z,5.43
2023-02-14T05:21:35.406Z,3.63
2023-02-14T05:31:38.045Z,7.77
2023-02-14T05:41:41.335Z,7.28
2023-02-14T05:51:43.853Z,6.70
2023-02-14T06:01:46.429Z,8.40
2023-02-14T06:11:48.904Z,9.57
2023-02-14T06:21:51.364Z,7.43
2023-02-14T06:31:54.026Z,7.50
2023-02-14T06:41:56.737Z,8.70
2023-02-14T06:51:59.506Z,13.70
2023-02-14T07:02:02.023Z,7.50
2023-02-14T07:12:04.700Z,7.23
2023-02-14T07:22:07.252Z,6.70
2023-02-14T07:32:10.063Z,6.03
2023-02-14T07:42:12.859Z,9.83
2023-02-14T07:52:15.492Z,7.70
2023-02-14T08:02:18.065Z,6.93
2023-02-14T08:12:39.019Z,7.00
2023-02-14T08:22:41.808Z,6.50
2023-02-14T08:32:44.463Z,7.63
2023-02-14T08:42:47.149Z,10.80
2023-02-14T08:52:49.702Z,9.60
2023-02-14T09:02:53.331Z,12.27
2023-02-14T09:12:55.977Z,9.27
2023-02-14T09:22:58.641Z,9.70
2023-02-14T09:33:04.345Z,9.20
2023-02-14T09:43:15.984Z,9.70
2023-02-14T09:53:43.806Z,9.23
2023-02-14T10:04:10.953Z,7.90
2023-02-14T10:14:18.277Z,8.98
2023-02-14T10:24:30.248Z,11.87
2023-02-14T10:34:42.859Z,11.27
2023-02-14T10:45:14.913Z,10.07
2023-02-14T10:55:34.414Z,12.40
2023-02-14T11:05:46.695Z,10.53
2023-02-14T11:15:51.843Z,11.63
2023-02-14T11:25:55.872Z,12.48
2023-02-14T11:36:00.094Z,9.47
2023-02-14T11:46:14.469Z,9.03
2023-02-14T11:56:20.221Z,8.95
2023-02-14T12:06:29.219Z,9.27
2023-02-14T12:16:40.271Z,9.03
2023-02-14T12:27:40.748Z,10.15
2023-02-14T12:38:04.955Z,10.90
2023-02-14T12:48:26.117Z,11.30
2023-02-14T12:58:49.683Z,11.00
2023-02-14T13:09:13.586Z,8.88
2023-02-14T13:19:34.591Z,10.30
2023-02-14T13:29:47.202Z,10.60
2023-02-14T13:39:57.341Z,10.80
2023-02-14T13:50:02.066Z,9.43
2023-02-14T14:00:19.980Z,8.97
2023-02-14T14:10:44.769Z,9.75
2023-02-14T14:20:51.908Z,9.33
2023-02-14T14:30:55.006Z,10.20
2023-02-14T14:40:58.073Z,8.93
2023-02-14T14:51:07.023Z,8.70
2023-02-14T15:01:28.196Z,9.43
2023-02-14T15:11:58.507Z,9.90
2023-02-14T15:22:03.543Z,10.43
2023-02-14T15:32:09.021Z,10.13
2023-02-14T15:42:27.674Z,10.97
2023-02-14T15:52:30.382Z,11.65
2023-02-14T16:02:38.917Z,10.00
2023-02-14T16:12:42.390Z,10.57
2023-02-14T16:22:45.154Z,9.63
2023-02-14T16:32:50.796Z,11.52
2023-02-14T16:42:53.913Z,10.70
2023-02-14T16:52:57.997Z,13.10
2023-02-14T17:03:06.928Z,11.15
2023-02-14T17:13:11.076Z,9.73
2023-02-14T17:23:13.775Z,10.60
2023-02-14T17:33:16.434Z,18.02
2023-02-14T17:43:19.268Z,14.20
2023-02-14T17:53:21.760Z,16.90
2023-02-14T18:03:24.556Z,12.13
2023-02-14T18:13:27.421Z,11.77
2023-02-14T18:23:31.253Z,23.07
2023-02-14T18:33:35.184Z,20.73
2023-02-14T18:43:41.006Z,14.00
2023-02-14T18:53:45.099Z,18.17
2023-02-14T19:03:49.801Z,18.50
2023-02-14T19:13:56.182Z,18.02
2023-02-14T19:23:59.148Z,20.03
2023-02-14T19:34:02.238Z,22.83
2023-02-14T19:44:06.743Z,21.20
2023-02-14T19:54:10.249Z,19.33
2023-02-14T20:04:16.214Z,21.87
2023-02-14T20:14:21.362Z,21.73
2023-02-14T20:24:26.984Z,23.63
2023-02-14T20:34:29.765Z,22.50
2023-02-14T20:44:34.741Z,22.00
2023-02-14T20:54:38.930Z,23.27
2023-02-14T21:04:41.785Z,17.80
2023-02-14T21:14:44.519Z,20.53
2023-02-14T21:24:50.044Z,19.13
2023-02-14T21:34:52.855Z,17.10
2023-02-14T21:45:14.188Z,15.87
2023-02-14T21:55:17.016Z,14.37
2023-02-14T22:05:19.730Z,12.32
2023-02-14T22:15:22.160Z,11.73
2023-02-14T22:25:25.736Z,11.97
2023-02-14T22:35:28.332Z,13.20
2023-02-14T22:45:30.736Z,10.80
2023-02-14T22:55:33.414Z,10.00
2023-02-14T23:05:36.000Z,10.23
2023-02-14T23:15:56.778Z,10.75
2023-02-14T23:26:00.797Z,10.27
2023-02-14T23:36:04.324Z,9.90
2023-02-14T23:46:06.816Z,10.15
2023-02-14T23:56:09.405Z,9.90
